Time;durP1;ratioP1;P1;durP2;ratioP2;P2;SDS_P1;SDS_P2;PMS_P1;PMS_P2;Temp;Humidity;BMP_temperature;BMP_pressure;BME280_temperature;BME280_humidity;BME280_pressure;Samples;Min_cycle;Max_cycle;Signal;HPM_P1;HPM_P2
2023/10/08 00:01:43;;;;;;;9.05;4.18;;;;;;;;;;4217959;28;20473;-79
2023/10/08 00:03:48;;;;;;;11.25;3.92;;;;;;;;;;4214727;28;20059;-80
2023/10/08 00:05:52;;;;;;;10.52;3.97;;;;;;;;;;4214866;28;20467;-78
2023/10/08 00:07:55;;;;;;;10.80;4.43;;;;;;;;;;4215051;28;20044;-78
2023/10/08 00:09:58;;;;;;;8.75;4.18;;;;;;;;;;4226026;28;20084;-79
2023/10/08 00:12:01;;;;;;;8.77;4.07;;;;;;;;;;4215408;28;20059;-78
2023/10/08 00:14:06;;;;;;;9.82;4.55;;;;;;;;;;4214739;28;20044;-78
2023/10/08 00:16:10;;;;;;;9.23;4.30;;;;;;;;;;4214402;28;20048;-79
2023/10/08 00:18:15;;;;;;;9.32;4.50;;;;;;;;;;4214316;28;20554;-79
2023/10/08 00:20:25;;;;;;;11.50;4.50;;;;;;;;;;4200669;28;20052;-79
2023/10/08 00:22:35;;;;;;;10.90;4.43;;;;;;;;;;4198977;28;20044;-78
2023/10/08 00:24:40;;;;;;;11.57;4.28;;;;;;;;;;4214336;28;20056;-79
2023/10/08 00:26:43;;;;;;;10.20;4.35;;;;;;;;;;4214212;28;20136;-79
2023/10/08 00:28:47;;;;;;;12.50;4.38;;;;;;;;;;4217612;28;20056;-79
2023/10/08 00:30:49;;;;;;;13.05;4.57;;;;;;;;;;4216883;28;20044;-79
2023/10/08 00:32:51;;;;;;;10.82;4.28;;;;;;;;;;4211959;28;20051;-81
2023/10/08 00:34:54;;;;;;;10.07;4.03;;;;;;;;;;4218001;28;20040;-79
2023/10/08 00:36:57;;;;;;;12.25;4.30;;;;;;;;;;4217060;28;20093;-80
2023/10/08 00:39:08;;;;;;;13.43;3.92;;;;;;;;;;4217225;28;20048;-79
2023/10/08 00:41:10;;;;;;;10.43;4.20;;;;;;;;;;4217602;28;20059;-81
2023/10/08 00:43:34;;;;;;;7.65;3.58;;;;;;;;;;4217253;28;20048;-78
2023/10/08 00:45:42;;;;;;;10.73;4.32;;;;;;;;;;4200639;28;20049;-80
2023/10/08 00:47:45;;;;;;;9.93;4.53;;;;;;;;;;4212969;28;20048;-80
2023/10/08 00:49:54;;;;;;;11.63;4.28;;;;;;;;;;4217020;28;20384;-80
2023/10/08 00:52:03;;;;;;;10.05;3.90;;;;;;;;;;4217151;28;20461;-78
2023/10/08 00:54:08;;;;;;;11.38;4.35;;;;;;;;;;4217531;28;20416;-81
2023/10/08 00:56:13;;;;;;;9.60;4.60;;;;;;;;;;4217610;28;20488;-78
2023/10/08 00:58:23;;;;;;;9.48;4.22;;;;;;;;;;4224291;28;20056;-81
2023/10/08 01:00:33;;;;;;;10.48;4.05;;;;;;;;;;4204751;28;20044;-80
2023/10/08 01:02:45;;;;;;;11.43;4.47;;;;;;;;;;4210381;28;20078;-79
2023/10/08 01:04:50;;;;;;;10.23;3.78;;;;;;;;;;4216646;28;20570;-79
2023/10/08 01:06:58;;;;;;;9.82;4.15;;;;;;;;;;4216779;28;20545;-80
2023/10/08 01:09:17;;;;;;;12.13;4.10;;;;;;;;;;4221638;28;20048;-80
2023/10/08 01:11:30;;;;;;;13.93;4.13;;;;;;;;;;4223418;28;20044;-78
2023/10/08 01:13:43;;;;;;;9.45;4.15;;;;;;;;;;4217124;28;20087;-81
2023/10/08 01:15:50;;;;;;;12.77;4.13;;;;;;;;;;4206583;28;20050;-78
2023/10/08 01:17:59;;;;;;;9.32;3.85;;;;;;;;;;4216698;28;20465;-80
2023/10/08 01:20:10;;;;;;;9.45;4.03;;;;;;;;;;4230141;28;20130;-78
2023/10/08 01:22:18;;;;;;;13.23;4.72;;;;;;;;;;4217553;28;20052;-81
2023/10/08 01:24:24;;;;;;;10.75;3.75;;;;;;;;;;4216906;28;20138;-79
2023/10/08 01:26:29;;;;;;;9.98;4.03;;;;;;;;;;4217374;28;20131;-80
2023/10/08 01:28:33;;;;;;;10.85;4.15;;;;;;;;;;4215427;28;20058;-80
2023/10/08 01:30:41;;;;;;;10.55;4.47;;;;;;;;;;4216347;28;20052;-79
2023/10/08 01:32:43;;;;;;;10.52;4.20;;;;;;;;;;4217261;28;20040;-78
2023/10/08 01:34:46;;;;;;;9.27;3.85;;;;;;;;;;4216730;28;20401;-79
2023/10/08 01:36:48;;;;;;;14.15;4.07;;;;;;;;;;4216456;28;20477;-78
2023/10/08 01:38:54;;;;;;;11.30;4.63;;;;;;;;;;4214687;28;20048;-78
2023/10/08 01:40:56;;;;;;;;;;;;;;;;;;4216419;28;20400;-79
2023/10/08 01:42:59;;;;;;;10.57;3.80;;;;;;;;;;4216377;28;19927;-80
2023/10/08 01:45:06;;;;;;;8.38;3.67;;;;;;;;;;4212323;28;20056;-78
2023/10/08 01:47:11;;;;;;;9.00;3.90;;;;;;;;;;4214194;28;20048;-78
2023/10/08 01:49:15;;;;;;;9.73;3.83;;;;;;;;;;4209860;28;20499;-78
2023/10/08 01:51:24;;;;;;;9.27;4.20;;;;;;;;;;4213423;28;20044;-81
2023/10/08 01:53:27;;;;;;;12.00;4.38;;;;;;;;;;4215897;28;20125;-79
2023/10/08 01:55:33;;;;;;;10.88;4.45;;;;;;;;;;4216070;28;20082;-79
2023/10/08 01:57:36;;;;;;;11.20;4.07;;;;;;;;;;4228484;28;20051;-79
2023/10/08 01:59:38;;;;;;;12.02;3.90;;;;;;;;;;4228191;28;20139;-80
2023/10/08 02:01:41;;;;;;;9.77;4.05;;;;;;;;;;4199379;28;20052;-80
2023/10/08 02:03:44;;;;;;;10.90;3.70;;;;;;;;;;4208127;28;20515;-79
2023/10/08 02:05:47;;;;;;;11.43;4.30;;;;;;;;;;4215544;28;20052;-81
2023/10/08 02:07:51;;;;;;;12.40;3.80;;;;;;;;;;4215674;28;20077;-80
2023/10/08 02:09:53;;;;;;;10.43;3.92;;;;;;;;;;4217748;28;20047;-81
2023/10/08 02:11:56;;;;;;;11.50;4.18;;;;;;;;;;4224508;28;20052;-80
2023/10/08 02:13:59;;;;;;;11.25;4.32;;;;;;;;;;4215957;28;20135;-80
2023/10/08 02:16:01;;;;;;;10.35;4.65;;;;;;;;;;4215779;28;20044;-80
2023/10/08 02:18:04;;;;;;;9.25;4.25;;;;;;;;;;4214177;28;20058;-80
2023/10/08 02:20:09;;;;;;;10.95;4.40;;;;;;;;;;4231107;28;20039;-80
2023/10/08 02:22:11;;;;;;;12.52;4.57;;;;;;;;;;4230473;28;20472;-81
2023/10/08 02:24:14;;;;;;;12.23;4.32;;;;;;;;;;4215514;28;20131;-80
2023/10/08 02:26:19;;;;;;;12.35;4.07;;;;;;;;;;4215308;28;20051;-80
2023/10/08 02:28:24;;;;;;;11.23;4.13;;;;;;;;;;4216172;28;20044;-80
2023/10/08 02:30:27;;;;;;;12.97;3.87;;;;;;;;;;4232966;28;20066;-78
2023/10/08 02:32:29;;;;;;;11.02;4.95;;;;;;;;;;4218997;28;20305;-80
2023/10/08 02:34:31;;;;;;;12.93;4.30;;;;;;;;;;4215291;28;20481;-80
2023/10/08 02:36:32;;;;;;;9.88;4.25;;;;;;;;;;4215291;28;20036;-81
2023/10/08 02:38:37;;;;;;;13.70;4.53;;;;;;;;;;4208108;28;20080;-80
2023/10/08 02:40:44;;;;;;;11.50;4.47;;;;;;;;;;4213097;28;20495;-81
2023/10/08 02:42:49;;;;;;;8.95;3.95;;;;;;;;;;4215101;28;20485;-79
2023/10/08 02:44:53;;;;;;;9.68;4.68;;;;;;;;;;4214914;28;20054;-81
2023/10/08 02:46:55;;;;;;;11.13;4.63;;;;;;;;;;4215191;28;20044;-81
2023/10/08 02:48:58;;;;;;;13.70;4.90;;;;;;;;;;4214142;28;20116;-79
2023/10/08 02:51:13;;;;;;;10.82;4.20;;;;;;;;;;4214406;28;20051;-79
2023/10/08 02:53:19;;;;;;;11.40;4.90;;;;;;;;;;4215443;28;20048;-81
2023/10/08 02:55:28;;;;;;;9.88;4.32;;;;;;;;;;4215286;28;20056;-81
2023/10/08 02:57:31;;;;;;;12.73;4.65;;;;;;;;;;4214885;28;20055;-80
2023/10/08 02:59:39;;;;;;;11.73;4.18;;;;;;;;;;4213343;28;20094;-80
2023/10/08 03:01:43;;;;;;;10.95;4.60;;;;;;;;;;4215280;28;20127;-80
2023/10/08 03:03:46;;;;;;;11.80;4.53;;;;;;;;;;4214977;28;20051;-81
2023/10/08 03:05:50;;;;;;;10.32;3.85;;;;;;;;;;4214890;28;20055;-79
2023/10/08 03:07:52;;;;;;;10.55;4.15;;;;;;;;;;4218311;28;20070;-80
2023/10/08 03:10:03;;;;;;;10.88;4.25;;;;;;;;;;4223462;28;20477;-79
2023/10/08 03:12:09;;;;;;;11.00;4.03;;;;;;;;;;4214686;28;20393;-81
2023/10/08 03:14:14;;;;;;;10.98;4.15;;;;;;;;;;4214897;28;20071;-81
2023/10/08 03:16:21;;;;;;;12.75;3.92;;;;;;;;;;4214714;28;20473;-80
2023/10/08 03:18:25;;;;;;;11.38;4.45;;;;;;;;;;4214237;28;20070;-80
2023/10/08 03:20:29;;;;;;;11.80;4.32;;;;;;;;;;4214577;28;20101;-78
2023/10/08 03:22:33;;;;;;;11.13;4.68;;;;;;;;;;4214539;28;20048;-80
2023/10/08 03:24:38;;;;;;;15.73;4.35;;;;;;;;;;4226017;28;20044;-79
2023/10/08 03:26:45;;;;;;;10.65;4.03;;;;;;;;;;4214584;28;20477;-80
2023/10/08 03:28:57;;;;;;;10.82;4.15;;;;;;;;;;4215164;28;20389;-80
2023/10/08 03:31:03;;;;;;;10.88;3.80;;;;;;;;;;4214848;28;20044;-80
2023/10/08 03:33:10;;;;;;;12.25;4.13;;;;;;;;;;4214620;28;20048;-80
2023/10/08 03:35:14;;;;;;;13.60;4.35;;;;;;;;;;4214699;28;20108;-79
2023/10/08 03:37:20;;;;;;;11.38;4.25;;;;;;;;;;4214763;28;20048;-80
2023/10/08 03:39:24;;;;;;;12.95;4.43;;;;;;;;;;4209594;28;20040;-78
2023/10/08 03:41:28;;;;;;;13.50;4.40;;;;;;;;;;4206265;28;20139;-81
2023/10/08 03:43:42;;;;;;;9.85;4.13;;;;;;;;;;4197917;28;20045;-82
2023/10/08 03:45:53;;;;;;;15.18;4.00;;;;;;;;;;4208989;28;20075;-80
2023/10/08 03:48:05;;;;;;;10.57;4.28;;;;;;;;;;4217211;28;20078;-78
2023/10/08 03:50:09;;;;;;;12.48;4.30;;;;;;;;;;4225039;28;20056;-81
2023/10/08 03:52:13;;;;;;;10.55;3.88;;;;;;;;;;4214249;28;20500;-79
2023/10/08 03:54:18;;;;;;;11.02;3.97;;;;;;;;;;4214384;28;20051;-78
2023/10/08 03:56:20;;;;;;;11.52;4.25;;;;;;;;;;4214597;28;20132;-79
2023/10/08 03:58:29;;;;;;;13.52;4.25;;;;;;;;;;4213240;28;20044;-81
2023/10/08 04:00:32;;;;;;;10.88;3.90;;;;;;;;;;4214112;28;20086;-81
2023/10/08 04:02:40;;;;;;;9.52;3.83;;;;;;;;;;4214570;28;20524;-80
2023/10/08 04:04:51;;;;;;;12.98;4.38;;;;;;;;;;4217753;28;20079;-81
2023/10/08 04:06:55;;;;;;;13.63;4.25;;;;;;;;;;4217914;28;20093;-80
2023/10/08 04:09:11;;;;;;;12.75;3.90;;;;;;;;;;4226980;28;20074;-80
2023/10/08 04:11:35;;;;;;;10.98;3.55;;;;;;;;;;4217918;28;20048;-81
2023/10/08 04:13:48;;;;;;;10.75;3.92;;;;;;;;;;4217893;28;20079;-80
2023/10/08 04:15:50;;;;;;;9.00;4.10;;;;;;;;;;4217429;28;20090;-80
2023/10/08 04:17:53;;;;;;;10.20;4.03;;;;;;;;;;4217601;28;20106;-78
2023/10/08 04:19:58;;;;;;;10.27;4.15;;;;;;;;;;4216703;28;20055;-79
2023/10/08 04:22:03;;;;;;;8.25;3.50;;;;;;;;;;4221645;28;20437;-80
2023/10/08 04:24:08;;;;;;;11.30;4.00;;;;;;;;;;4234647;28;20407;-79
2023/10/08 04:26:10;;;;;;;10.68;3.95;;;;;;;;;;4217350;28;20044;-79
2023/10/08 04:28:14;;;;;;;9.35;3.83;;;;;;;;;;4217600;28;20076;-80
2023/10/08 04:30:16;;;;;;;8.88;3.95;;;;;;;;;;4216441;28;20063;-81
2023/10/08 04:32:24;;;;;;;8.90;3.58;;;;;;;;;;4217058;28;20079;-80
2023/10/08 04:34:27;;;;;;;9.85;3.63;;;;;;;;;;4222700;28;20084;-80
2023/10/08 04:36:32;;;;;;;10.40;3.88;;;;;;;;;;4224455;28;20054;-79
2023/10/08 04:38:40;;;;;;;10.70;4.10;;;;;;;;;;4218466;28;20040;-80
2023/10/08 04:40:48;;;;;;;11.10;4.55;;;;;;;;;;4216177;28;20420;-81
2023/10/08 04:42:50;;;;;;;11.07;3.80;;;;;;;;;;4218010;28;20553;-81
2023/10/08 04:44:54;;;;;;;10.50;4.03;;;;;;;;;;4218223;28;20074;-80
2023/10/08 04:46:55;;;;;;;10.63;3.65;;;;;;;;;;4218348;28;20040;-79
2023/10/08 04:48:58;;;;;;;10.13;3.90;;;;;;;;;;4217697;28;20473;-79
2023/10/08 04:51:02;;;;;;;12.50;4.10;;;;;;;;;;4218915;28;20126;-79
2023/10/08 04:53:07;;;;;;;9.07;3.70;;;;;;;;;;4224880;28;20079;-78
2023/10/08 04:55:19;;;;;;;11.95;3.80;;;;;;;;;;4217262;28;20135;-78
2023/10/08 04:57:25;;;;;;;11.27;4.00;;;;;;;;;;4227729;28;20094;-79
2023/10/08 04:59:33;;;;;;;12.48;3.28;;;;;;;;;;4232540;28;21575;-80
2023/10/08 05:01:47;;;;;;;10.48;3.65;;;;;;;;;;4224572;28;20044;-79
2023/10/08 05:04:23;;;;;;;12.35;4.18;;;;;;;;;;4231945;28;20485;-79
2023/10/08 05:08:59;;;;;;;8.65;3.88;;;;;;;;;;4231517;27;20479;-79
2023/10/08 05:11:15;;;;;;;9.35;3.80;;;;;;;;;;4234925;28;20074;-79
2023/10/08 05:13:21;;;;;;;9.55;3.53;;;;;;;;;;4237529;28;20040;-80
2023/10/08 05:15:33;;;;;;;10.27;3.65;;;;;;;;;;4232038;28;20051;-79
2023/10/08 05:17:46;;;;;;;12.57;3.45;;;;;;;;;;4229901;28;20055;-88
2023/10/08 05:19:56;;;;;;;11.23;3.78;;;;;;;;;;4230134;28;20052;-87
2023/10/08 05:22:17;;;;;;;13.10;3.88;;;;;;;;;;4228175;28;20044;-84
2023/10/08 05:24:27;;;;;;;10.32;3.53;;;;;;;;;;4229893;28;20101;-85
2023/10/08 05:26:41;;;;;;;11.98;4.13;;;;;;;;;;4229589;28;20473;-79
2023/10/08 05:28:47;;;;;;;10.85;3.63;;;;;;;;;;4226629;28;20078;-81
2023/10/08 05:30:55;;;;;;;9.95;4.13;;;;;;;;;;4212335;28;20041;-80
2023/10/08 05:33:24;;;;;;;12.65;3.75;;;;;;;;;;4216650;28;20043;-79
2023/10/08 05:35:48;;;;;;;10.05;3.67;;;;;;;;;;4211985;28;20048;-81
2023/10/08 05:38:02;;;;;;;12.63;3.83;;;;;;;;;;4215178;28;20139;-78
2023/10/08 05:40:21;;;;;;;9.48;3.83;;;;;;;;;;4225418;28;20123;-79
2023/10/08 05:42:31;;;;;;;8.80;3.75;;;;;;;;;;4221094;28;20056;-84
2023/10/08 05:44:39;;;;;;;12.13;4.10;;;;;;;;;;4219821;28;20469;-79
2023/10/08 05:49:03;;;;;;;9.75;3.53;;;;;;;;;;4228529;28;22282;-79
2023/10/08 05:51:13;;;;;;;9.80;3.88;;;;;;;;;;4227782;28;20374;-79
2023/10/08 05:53:43;;;;;;;9.15;3.35;;;;;;;;;;4229097;28;20047;-81
2023/10/08 05:55:47;;;;;;;13.38;3.92;;;;;;;;;;4228516;28;20135;-81
2023/10/08 05:58:02;;;;;;;10.73;4.03;;;;;;;;;;4228598;28;20100;-81
2023/10/08 06:02:27;;;;;;;10.00;3.63;;;;;;;;;;4222942;28;20551;-81
2023/10/08 06:04:53;;;;;;;9.40;3.75;;;;;;;;;;4216083;28;20452;-80
2023/10/08 06:07:11;;;;;;;10.05;3.92;;;;;;;;;;4225107;27;20070;-80
2023/10/08 06:09:22;;;;;;;10.75;3.90;;;;;;;;;;4228289;28;20047;-80
2023/10/08 06:11:41;;;;;;;11.95;3.95;;;;;;;;;;4228588;28;20094;-80
2023/10/08 06:13:55;;;;;;;8.95;3.90;;;;;;;;;;4222753;28;20075;-79
2023/10/08 06:16:05;;;;;;;13.23;4.43;;;;;;;;;;4211722;28;20080;-80
2023/10/08 06:18:08;;;;;;;13.25;4.00;;;;;;;;;;4220691;28;20529;-82
2023/10/08 06:20:11;;;;;;;12.13;4.30;;;;;;;;;;4217668;28;20052;-80
2023/10/08 06:22:13;;;;;;;11.00;3.80;;;;;;;;;;4217134;28;20080;-78
2023/10/08 06:24:16;;;;;;;11.63;3.60;;;;;;;;;;4216694;28;20119;-80
2023/10/08 06:26:21;;;;;;;12.15;3.60;;;;;;;;;;4217075;28;20044;-78
2023/10/08 06:28:25;;;;;;;14.10;3.85;;;;;;;;;;4211174;28;20464;-81
2023/10/08 06:30:34;;;;;;;13.30;3.83;;;;;;;;;;4206298;28;20070;-79
2023/10/08 06:32:36;;;;;;;10.65;3.55;;;;;;;;;;4207013;28;20036;-80
2023/10/08 06:34:40;;;;;;;10.45;3.95;;;;;;;;;;4215823;28;20052;-81
2023/10/08 06:36:42;;;;;;;9.73;3.78;;;;;;;;;;4216909;28;20469;-80
2023/10/08 06:38:48;;;;;;;9.55;3.50;;;;;;;;;;4215209;28;20101;-81
2023/10/08 06:40:52;;;;;;;;;;;;;;;;;;4212301;28;20036;-80
2023/10/08 06:42:56;;;;;;;15.50;6.57;;;;;;;;;;4216805;28;19971;-80
2023/10/08 06:45:01;;;;;;;9.90;3.97;;;;;;;;;;4201200;28;20057;-78
2023/10/08 06:47:09;;;;;;;10.98;3.83;;;;;;;;;;4216693;28;20040;-79
2023/10/08 06:49:15;;;;;;;11.13;3.70;;;;;;;;;;4216941;28;20048;-77
2023/10/08 06:51:18;;;;;;;;;;;;;;;;;;4216912;28;20482;-79
2023/10/08 06:53:19;;;;;;;13.85;3.53;;;;;;;;;;4215684;28;19982;-79
2023/10/08 06:55:24;;;;;;;13.90;3.58;;;;;;;;;;4216754;28;20040;-80
2023/10/08 06:57:27;;;;;;;11.00;3.33;;;;;;;;;;4205710;28;20044;-79
2023/10/08 06:59:31;;;;;;;13.27;3.42;;;;;;;;;;4223510;28;20317;-80
2023/10/08 07:01:39;;;;;;;9.30;3.38;;;;;;;;;;4219808;28;20117;-79
2023/10/08 07:03:41;;;;;;;13.05;3.42;;;;;;;;;;4216423;28;20436;-79
2023/10/08 07:05:54;;;;;;;12.65;3.17;;;;;;;;;;4216436;28;20094;-81
2023/10/08 07:07:56;;;;;;;10.65;3.50;;;;;;;;;;4214585;28;20118;-79
2023/10/08 07:09:59;;;;;;;10.23;3.10;;;;;;;;;;4216059;28;20044;-79
2023/10/08 07:12:05;;;;;;;12.10;3.53;;;;;;;;;;4216387;28;20092;-80
2023/10/08 07:14:10;;;;;;;15.75;3.67;;;;;;;;;;4216218;28;20109;-78
2023/10/08 07:16:17;;;;;;;14.32;3.63;;;;;;;;;;4215718;28;20473;-85
2023/10/08 07:18:24;;;;;;;13.40;3.30;;;;;;;;;;4207477;28;20463;-91
2023/10/08 07:20:28;;;;;;;12.05;3.53;;;;;;;;;;4217611;28;20063;-86
2023/10/08 07:22:31;;;;;;;15.88;4.30;;;;;;;;;;4216844;28;20052;-79
2023/10/08 07:24:36;;;;;;;12.32;3.42;;;;;;;;;;4216454;28;20078;-81
2023/10/08 07:26:40;;;;;;;13.25;3.25;;;;;;;;;;4216389;28;20492;-83
2023/10/08 07:28:43;;;;;;;9.52;3.22;;;;;;;;;;4215040;28;20055;-78
2023/10/08 07:30:45;;;;;;;16.02;4.18;;;;;;;;;;4214644;28;20430;-81
2023/10/08 07:32:47;;;;;;;12.73;4.05;;;;;;;;;;4216145;28;20090;-81
2023/10/08 07:34:57;;;;;;;18.33;3.53;;;;;;;;;;4215770;28;20071;-79
2023/10/08 07:37:00;;;;;;;13.57;2.95;;;;;;;;;;4214909;28;20113;-79
2023/10/08 07:39:08;;;;;;;9.32;3.08;;;;;;;;;;4215916;28;20059;-79
2023/10/08 07:41:12;;;;;;;14.32;3.47;;;;;;;;;;4215239;28;20044;-81
2023/10/08 07:43:15;;;;;;;12.05;3.72;;;;;;;;;;4215994;28;20051;-85
2023/10/08 07:45:17;;;;;;;13.93;3.97;;;;;;;;;;4216033;28;20421;-82
2023/10/08 07:47:21;;;;;;;12.88;3.67;;;;;;;;;;4204912;28;20051;-83
2023/10/08 07:49:25;;;;;;;13.30;3.50;;;;;;;;;;4209769;28;20044;-86
2023/10/08 07:51:29;;;;;;;13.02;3.20;;;;;;;;;;4202250;28;20048;-84
2023/10/08 07:53:38;;;;;;;11.75;3.25;;;;;;;;;;4216380;28;20467;-87
2023/10/08 07:55:41;;;;;;;15.73;3.58;;;;;;;;;;4215076;28;20048;-88
2023/10/08 07:57:43;;;;;;;11.27;3.53;;;;;;;;;;4214938;28;20079;-83
2023/10/08 07:59:46;;;;;;;12.15;3.20;;;;;;;;;;4216198;28;20459;-87
2023/10/08 08:01:48;;;;;;;11.00;3.65;;;;;;;;;;4215981;28;20448;-86
2023/10/08 08:03:50;;;;;;;10.40;3.38;;;;;;;;;;4216084;28;20452;-84
2023/10/08 08:05:53;;;;;;;11.80;3.83;;;;;;;;;;4212040;28;20405;-80
2023/10/08 08:07:59;;;;;;;10.50;3.42;;;;;;;;;;4215089;28;20097;-84
2023/10/08 08:10:04;;;;;;;10.55;3.38;;;;;;;;;;4215335;28;20040;-80
2023/10/08 08:12:11;;;;;;;10.18;3.72;;;;;;;;;;4226839;28;20090;-84
2023/10/08 08:14:16;;;;;;;14.35;3.85;;;;;;;;;;4219233;28;20131;-84
2023/10/08 08:16:20;;;;;;;8.40;3.33;;;;;;;;;;4217319;28;20079;-89
2023/10/08 08:18:23;;;;;;;10.32;3.90;;;;;;;;;;4217630;28;20087;-89
2023/10/08 08:20:38;;;;;;;15.10;3.38;;;;;;;;;;4217493;28;20047;-83
2023/10/08 08:22:41;;;;;;;12.35;3.55;;;;;;;;;;4199642;28;20102;-87
2023/10/08 08:24:45;;;;;;;12.18;3.30;;;;;;;;;;4218780;28;20047;-91
2023/10/08 08:27:01;;;;;;;14.95;3.72;;;;;;;;;;4217499;28;20065;-80
2023/10/08 08:29:04;;;;;;;10.27;3.08;;;;;;;;;;4215067;28;20072;-84
2023/10/08 08:31:13;;;;;;;13.18;3.38;;;;;;;;;;4215555;28;20130;-83
2023/10/08 08:33:22;;;;;;;10.43;3.30;;;;;;;;;;4216234;28;20052;-85
2023/10/08 08:35:24;;;;;;;14.38;3.85;;;;;;;;;;4216265;28;20058;-89
2023/10/08 08:37:29;;;;;;;17.88;6.30;;;;;;;;;;4215000;28;20485;-87
2023/10/08 08:39:35;;;;;;;24.08;10.77;;;;;;;;;;4216622;28;20052;-81
2023/10/08 08:41:40;;;;;;;15.93;4.82;;;;;;;;;;4218333;28;20055;-84
2023/10/08 08:43:44;;;;;;;12.07;3.65;;;;;;;;;;4214286;28;20485;-86
2023/10/08 08:45:49;;;;;;;14.80;3.30;;;;;;;;;;4217911;28;20072;-85
2023/10/08 08:47:55;;;;;;;13.40;4.45;;;;;;;;;;4201854;28;20490;-88
2023/10/08 08:50:00;;;;;;;12.75;3.67;;;;;;;;;;4202040;28;20056;-90
2023/10/08 08:52:02;;;;;;;10.98;3.60;;;;;;;;;;4214031;28;20059;-88
2023/10/08 08:54:06;;;;;;;15.15;3.83;;;;;;;;;;4215252;28;20063;-90
2023/10/08 08:56:10;;;;;;;11.45;3.63;;;;;;;;;;4218144;28;20048;-90
2023/10/08 08:58:13;;;;;;;11.63;3.83;;;;;;;;;;4217102;28;20040;-89
2023/10/08 09:00:17;;;;;;;11.02;3.58;;;;;;;;;;4217167;28;20082;-85
2023/10/08 09:02:19;;;;;;;12.63;3.28;;;;;;;;;;4213543;28;20075;-82
2023/10/08 09:04:30;;;;;;;11.48;3.35;;;;;;;;;;4207644;28;20036;-80
2023/10/08 09:06:33;;;;;;;10.90;3.58;;;;;;;;;;4215196;28;20097;-79
2023/10/08 09:08:36;;;;;;;9.18;3.28;;;;;;;;;;4214495;28;20066;-79
2023/10/08 09:10:51;;;;;;;10.93;3.40;;;;;;;;;;4216892;28;20044;-80
2023/10/08 09:12:58;;;;;;;16.80;5.15;;;;;;;;;;4214141;28;20055;-80
2023/10/08 09:15:04;;;;;;;11.60;3.90;;;;;;;;;;4214023;28;20044;-78
2023/10/08 09:17:06;;;;;;;;;;;;;;;;;;4215587;28;20438;-81
2023/10/08 09:19:12;;;;;;;12.65;3.80;;;;;;;;;;4212213;28;20361;-84
2023/10/08 09:21:19;;;;;;;9.60;3.88;;;;;;;;;;4198381;28;20119;-81
2023/10/08 09:23:23;;;;;;;8.60;3.75;;;;;;;;;;4217103;28;20055;-81
2023/10/08 09:25:25;;;;;;;11.43;3.55;;;;;;;;;;4218226;28;20534;-80
2023/10/08 09:27:30;;;;;;;9.93;3.35;;;;;;;;;;4213307;28;20178;-81
2023/10/08 09:29:38;;;;;;;9.23;3.33;;;;;;;;;;4204229;28;20047;-81
2023/10/08 09:31:48;;;;;;;9.80;3.38;;;;;;;;;;4213137;28;20059;-82
2023/10/08 09:33:55;;;;;;;8.50;3.70;;;;;;;;;;4212901;28;20539;-81
2023/10/08 09:36:02;;;;;;;9.02;3.80;;;;;;;;;;4214619;28;20401;-81
2023/10/08 09:38:11;;;;;;;10.75;4.78;;;;;;;;;;4213970;28;20129;-81
2023/10/08 09:40:15;;;;;;;10.43;4.07;;;;;;;;;;4214397;28;20048;-80
2023/10/08 09:42:19;;;;;;;13.32;6.53;;;;;;;;;;4214029;28;20044;-80
2023/10/08 09:44:21;;;;;;;12.30;3.83;;;;;;;;;;4215796;28;20058;-77
2023/10/08 09:46:26;;;;;;;9.38;3.33;;;;;;;;;;4214898;28;20048;-78
2023/10/08 09:48:30;;;;;;;8.75;3.25;;;;;;;;;;4222654;28;20052;-83
2023/10/08 09:50:37;;;;;;;9.00;3.10;;;;;;;;;;4225536;28;20048;-86
2023/10/08 09:52:46;;;;;;;8.70;3.20;;;;;;;;;;4223655;28;20044;-88
2023/10/08 09:54:57;;;;;;;10.77;3.10;;;;;;;;;;4214015;28;20051;-88
2023/10/08 09:57:00;;;;;;;10.32;3.50;;;;;;;;;;4221846;28;20496;-86
2023/10/08 09:59:11;;;;;;;12.25;3.20;;;;;;;;;;4216120;28;20471;-86
2023/10/08 10:01:13;;;;;;;10.38;3.67;;;;;;;;;;4204803;28;20041;-89
2023/10/08 10:03:15;;;;;;;11.35;3.63;;;;;;;;;;4217293;28;20123;-85
2023/10/08 10:05:22;;;;;;;15.43;8.25;;;;;;;;;;4213978;28;20044;-77
2023/10/08 10:07:28;;;;;;;11.23;3.47;;;;;;;;;;4211410;28;20048;-86
2023/10/08 10:09:29;;;;;;;11.90;3.40;;;;;;;;;;4226600;28;20048;-89
2023/10/08 10:11:31;;;;;;;11.48;3.80;;;;;;;;;;4235038;28;20059;-89
2023/10/08 10:13:39;;;;;;;10.63;3.03;;;;;;;;;;4233680;28;20051;-89
2023/10/08 10:15:44;;;;;;;12.63;3.25;;;;;;;;;;4231435;28;20074;-81
2023/10/08 10:17:50;;;;;;;9.60;3.40;;;;;;;;;;4223975;28;20079;-82
2023/10/08 10:19:54;;;;;;;;;;;;;;;;;;4217181;28;20127;-83
2023/10/08 10:21:58;;;;;;;14.32;3.40;;;;;;;;;;4218200;28;19920;-81
2023/10/08 10:24:01;;;;;;;15.38;3.55;;;;;;;;;;4218180;28;20485;-80
2023/10/08 10:26:03;;;;;;;9.65;3.55;;;;;;;;;;4212809;28;20040;-83
2023/10/08 10:28:24;;;;;;;10.73;3.55;;;;;;;;;;4217702;28;20093;-82
2023/10/08 10:30:27;;;;;;;14.20;3.50;;;;;;;;;;4214805;28;20105;-80
2023/10/08 10:32:30;;;;;;;8.80;3.33;;;;;;;;;;4217272;28;20044;-79
2023/10/08 10:34:47;;;;;;;10.32;3.42;;;;;;;;;;4210019;28;20087;-85
2023/10/08 10:36:54;;;;;;;12.55;3.78;;;;;;;;;;4210958;28;20406;-80
2023/10/08 10:38:57;;;;;;;9.65;3.53;;;;;;;;;;4217826;28;20048;-83
2023/10/08 10:41:07;;;;;;;15.60;3.50;;;;;;;;;;4217858;28;20048;-83
2023/10/08 10:43:10;;;;;;;16.60;4.43;;;;;;;;;;4216995;28;20611;-83
2023/10/08 10:45:35;;;;;;;11.38;3.35;;;;;;;;;;4216497;28;20048;-82
2023/10/08 10:47:43;;;;;;;11.38;3.60;;;;;;;;;;4216939;28;20486;-82
2023/10/08 10:49:52;;;;;;;10.45;3.60;;;;;;;;;;4216017;28;20451;-84
2023/10/08 10:51:57;;;;;;;14.82;3.78;;;;;;;;;;4218223;28;20553;-88
2023/10/08 10:54:07;;;;;;;11.90;3.42;;;;;;;;;;4217533;28;20067;-84
2023/10/08 10:56:09;;;;;;;9.65;3.13;;;;;;;;;;4216840;28;20454;-85
2023/10/08 10:58:15;;;;;;;12.73;4.00;;;;;;;;;;4216996;28;20450;-82
2023/10/08 11:00:27;;;;;;;11.60;3.72;;;;;;;;;;4216722;28;20054;-85
2023/10/08 11:02:31;;;;;;;10.98;3.90;;;;;;;;;;4218085;28;20454;-87
2023/10/08 11:04:33;;;;;;;11.40;3.30;;;;;;;;;;4215886;28;20072;-84
2023/10/08 11:06:39;;;;;;;15.02;3.63;;;;;;;;;;4217144;28;20055;-86
2023/10/08 11:08:46;;;;;;;;;;;;;;;;;;4216466;28;20083;-78
2023/10/08 11:10:51;;;;;;;11.57;3.35;;;;;;;;;;4216409;28;19919;-80
2023/10/08 11:12:54;;;;;;;12.32;3.50;;;;;;;;;;4216763;28;20485;-84
2023/10/08 11:14:57;;;;;;;11.40;3.60;;;;;;;;;;4216081;28;20093;-82
2023/10/08 11:16:59;;;;;;;13.23;3.50;;;;;;;;;;4216087;28;20131;-82
2023/10/08 11:19:06;;;;;;;11.43;3.25;;;;;;;;;;4215742;28;20406;-81
2023/10/08 11:21:15;;;;;;;10.77;3.67;;;;;;;;;;4206444;28;20131;-77
2023/10/08 11:23:33;;;;;;;10.10;3.60;;;;;;;;;;4216260;28;20071;-80
2023/10/08 11:25:35;;;;;;;12.63;3.50;;;;;;;;;;4216210;28;20447;-80
2023/10/08 11:27:39;;;;;;;10.32;3.40;;;;;;;;;;4217024;28;20101;-83
2023/10/08 11:29:43;;;;;;;12.15;3.55;;;;;;;;;;4219518;28;20051;-80
2023/10/08 11:31:45;;;;;;;10.45;3.80;;;;;;;;;;4219445;28;20047;-82
2023/10/08 11:33:53;;;;;;;10.15;3.63;;;;;;;;;;4212288;28;20048;-85
2023/10/08 11:36:01;;;;;;;13.25;3.80;;;;;;;;;;4216019;28;20071;-78
2023/10/08 11:38:04;;;;;;;12.45;4.22;;;;;;;;;;4215785;28;20059;-77
2023/10/08 11:40:15;;;;;;;11.82;3.90;;;;;;;;;;4214891;28;20071;-78
2023/10/08 11:42:40;;;;;;;11.80;4.18;;;;;;;;;;4215533;28;20094;-79
2023/10/08 11:44:44;;;;;;;10.15;3.75;;;;;;;;;;4215762;28;20338;-77
2023/10/08 11:46:51;;;;;;;9.85;3.55;;;;;;;;;;4216605;28;20086;-80
2023/10/08 11:48:57;;;;;;;11.60;4.03;;;;;;;;;;4216940;28;20051;-78
2023/10/08 11:51:01;;;;;;;11.23;3.92;;;;;;;;;;4213099;28;20509;-79
2023/10/08 11:53:05;;;;;;;20.42;11.65;;;;;;;;;;4199638;28;20601;-78
2023/10/08 11:55:07;;;;;;;15.73;6.85;;;;;;;;;;4215341;28;20048;-80
2023/10/08 14:24:23;;;;;;;14.80;4.82;;;;;;;;;;4260275;27;20772;-77
2023/10/08 14:26:34;;;;;;;11.02;3.85;;;;;;;;;;4248501;27;20676;-79
2023/10/08 14:28:50;;;;;;;12.98;4.05;;;;;;;;;;4246302;27;20048;-78
2023/10/08 14:30:55;;;;;;;12.85;3.78;;;;;;;;;;4243824;28;20473;-79
2023/10/08 14:32:58;;;;;;;13.30;4.63;;;;;;;;;;4243673;28;20439;-80
2023/10/08 14:44:20;;;;;;;20.88;10.05;;;;;;;;;;4243586;27;20233;-80
2023/10/08 14:46:23;;;;;;;15.30;5.63;;;;;;;;;;4245303;27;20103;-80
2023/10/08 14:48:29;;;;;;;17.38;5.68;;;;;;;;;;4240404;27;20473;-77
2023/10/08 14:50:32;;;;;;;;;;;;;;;;;;4244077;27;20048;-78
2023/10/08 14:52:35;;;;;;;13.38;4.20;;;;;;;;;;4245498;27;19923;-78
2023/10/08 14:54:39;;;;;;;14.30;4.88;;;;;;;;;;4247271;27;20055;-78
2023/10/08 14:56:42;;;;;;;15.38;5.30;;;;;;;;;;4242860;27;20187;-79
2023/10/08 14:58:44;;;;;;;11.45;4.05;;;;;;;;;;4247144;27;20104;-79
2023/10/08 15:00:47;;;;;;;11.00;4.22;;;;;;;;;;4244101;28;20044;-81
2023/10/08 15:05:42;;;;;;;14.02;3.95;;;;;;;;;;4211038;27;20958;-80
2023/10/08 15:08:58;;;;;;;12.95;4.35;;;;;;;;;;4243416;27;20362;-81
2023/10/08 15:11:02;;;;;;;11.18;4.43;;;;;;;;;;4237823;28;20696;-79
2023/10/08 15:13:06;;;;;;;10.80;4.50;;;;;;;;;;4227112;28;20134;-78
2023/10/08 15:15:12;;;;;;;13.23;4.88;;;;;;;;;;4227813;28;20052;-78
2023/10/08 15:17:17;;;;;;;15.38;4.55;;;;;;;;;;4227599;28;20449;-79
2023/10/08 15:19:20;;;;;;;11.77;4.47;;;;;;;;;;4226901;28;20485;-78